Time;durP1;ratioP1;P1;durP2;ratioP2;P2;SDS_P1;SDS_P2;PMS_P1;PMS_P2;Temp;Humidity;BMP_temperature;BMP_pressure;BME280_temperature;BME280_humidity;BME280_pressure;Samples;Min_cycle;Max_cycle;Signal;HPM_P1;HPM_P2
2023/10/03 00:05:00;;;;;;;20.30;11.02;;;;;;;16.27;100.00;100083.59;10247097;28;20053;-78
2023/10/03 00:10:01;;;;;;;15.40;11.20;;;;;;;15.93;100.00;100027.41;10246435;28;20035;-78
2023/10/03 00:15:02;;;;;;;19.55;11.32;;;;;;;16.28;100.00;100088.75;10246085;28;20043;-78
2023/10/03 00:20:04;;;;;;;16.35;10.80;;;;;;;16.22;100.00;100086.91;10245524;28;20049;-78
2023/10/03 00:25:17;;;;;;;17.88;10.88;;;;;;;16.19;100.00;100090.84;10245828;28;20055;-78
2023/10/03 00:30:26;;;;;;;24.17;11.00;;;;;;;16.16;100.00;100095.81;10245752;28;20096;-78
2023/10/03 00:35:26;;;;;;;12.98;10.25;;;;;;;16.10;100.00;100092.09;10246114;28;20139;-78
2023/10/03 00:40:28;;;;;;;15.50;10.82;;;;;;;16.16;100.00;100101.16;10245089;28;20195;-78
2023/10/03 00:45:29;;;;;;;33.10;11.68;;;;;;;16.11;100.00;100106.31;10244849;28;20130;-78
2023/10/03 00:50:31;;;;;;;15.13;11.27;;;;;;;15.78;100.00;100045.59;10245149;28;20047;-78
2023/10/03 00:55:33;;;;;;;21.58;11.57;;;;;;;16.14;100.00;100108.56;10245048;28;20101;-77
2023/10/03 01:00:45;;;;;;;29.45;10.60;;;;;;;15.64;100.00;100026.00;10244440;28;20051;-78
2023/10/03 01:05:46;;;;;;;19.02;11.13;;;;;;;16.05;100.00;100105.28;10244352;28;20062;-78
2023/10/03 01:10:47;;;;;;;19.60;11.77;;;;;;;15.71;100.00;100061.69;10244899;28;20051;-78
2023/10/03 01:15:50;;;;;;;17.40;12.27;;;;;;;16.07;100.00;100115.81;10244823;28;20126;-78
2023/10/03 01:20:55;;;;;;;19.20;12.23;;;;;;;16.01;100.00;100109.44;10245043;28;20055;-78
2023/10/03 01:25:56;;;;;;;21.52;12.95;;;;;;;15.82;100.00;100087.00;10243594;28;20090;-78
2023/10/03 01:30:57;;;;;;;18.88;12.35;;;;;;;15.38;100.00;100024.22;10247524;28;20813;-78
2023/10/03 01:35:59;;;;;;;20.05;13.40;;;;;;;16.00;100.00;100123.03;10250869;28;20497;-78
2023/10/03 01:41:00;;;;;;;16.88;12.45;;;;;;;16.09;100.00;100127.13;10251637;28;20126;-78
2023/10/03 01:46:01;;;;;;;20.90;11.93;;;;;;;16.09;100.00;100132.50;10250532;28;20050;-78
2023/10/03 01:51:02;;;;;;;20.83;12.38;;;;;;;16.01;100.00;100119.34;10250040;28;20039;-78
2023/10/03 01:56:05;;;;;;;14.50;11.70;;;;;;;15.88;100.00;100088.00;10250248;28;20384;-79
2023/10/03 02:01:07;;;;;;;18.40;12.52;;;;;;;15.37;100.00;100003.81;10250571;28;20039;-80
2023/10/03 02:06:08;;;;;;;16.75;12.27;;;;;;;16.06;100.00;100122.19;10246439;28;20051;-79
2023/10/03 02:11:11;;;;;;;17.98;11.88;;;;;;;16.05;100.00;100129.41;10249847;28;20047;-79
2023/10/03 02:16:13;;;;;;;19.33;12.52;;;;;;;15.77;100.00;100108.25;10249627;28;20051;-79
2023/10/03 02:21:16;;;;;;;26.38;11.70;;;;;;;15.51;100.00;100072.38;10249140;28;20043;-79
2023/10/03 02:26:17;;;;;;;21.38;12.63;;;;;;;15.94;100.00;100132.72;10249907;28;20059;-79
2023/10/03 02:31:20;;;;;;;23.38;13.02;;;;;;;15.93;100.00;100149.84;10249155;28;20050;-79
2023/10/03 02:36:20;;;;;;;17.90;12.88;;;;;;;15.74;100.00;100122.84;10248473;28;20047;-79
2023/10/03 02:41:22;;;;;;;34.10;14.20;;;;;;;15.95;100.00;100151.28;10248324;28;20039;-79
2023/10/03 02:46:23;;;;;;;20.20;13.25;;;;;;;16.01;100.00;100163.03;10248913;28;20126;-77
2023/10/03 02:51:24;;;;;;;17.92;12.93;;;;;;;16.03;100.00;100146.72;10248675;28;20054;-77
2023/10/03 02:56:25;;;;;;;24.40;13.30;;;;;;;15.93;100.00;100133.75;10248921;28;20403;-77
2023/10/03 03:01:26;;;;;;;17.50;12.25;;;;;;;15.84;100.00;100130.47;10247678;28;20051;-77
2023/10/03 03:06:26;;;;;;;16.92;12.85;;;;;;;15.57;100.00;100085.97;10214440;28;20051;-77
2023/10/03 03:11:28;;;;;;;15.15;12.30;;;;;;;16.06;100.00;100162.38;10208562;29;20457;-77
2023/10/03 03:16:29;;;;;;;19.85;11.93;;;;;;;16.02;100.00;100153.13;10205351;29;20052;-78
2023/10/03 03:21:32;;;;;;;15.98;12.52;;;;;;;16.12;100.00;100161.53;10208062;29;20082;-75
2023/10/03 03:26:36;;;;;;;18.65;12.32;;;;;;;16.02;100.00;100148.59;10207478;29;20075;-79
2023/10/03 03:31:37;;;;;;;20.60;13.60;;;;;;;15.89;100.00;100122.66;10207511;29;20105;-81
2023/10/03 03:36:40;;;;;;;17.85;12.30;;;;;;;16.22;100.00;100172.69;10216311;29;20051;-74
2023/10/03 03:41:42;;;;;;;23.05;13.43;;;;;;;15.87;100.00;100132.72;10246330;28;20047;-75
2023/10/03 03:46:43;;;;;;;16.80;13.18;;;;;;;16.14;100.00;100179.06;10246435;28;20039;-76
2023/10/03 03:51:44;;;;;;;16.67;11.80;;;;;;;16.26;100.00;100213.28;10245725;28;20047;-73
2023/10/03 03:56:45;;;;;;;17.85;12.50;;;;;;;16.03;100.00;100168.97;10246378;28;20051;-74
2023/10/03 04:01:46;;;;;;;21.95;12.27;;;;;;;15.74;100.00;100136.25;10245089;28;20042;-73
2023/10/03 04:06:46;;;;;;;23.08;11.80;;;;;;;15.89;100.00;100154.78;10245556;28;20047;-71
2023/10/03 04:11:47;;;;;;;23.20;11.90;;;;;;;16.23;100.00;100209.16;10244946;29;20601;-73
2023/10/03 04:16:48;;;;;;;26.13;12.68;;;;;;;15.78;100.00;100147.38;10245977;28;20496;-74
2023/10/03 04:21:50;;;;;;;26.70;13.38;;;;;;;16.04;100.00;100196.63;10245975;29;20050;-72
2023/10/03 04:26:53;;;;;;;23.48;12.63;;;;;;;16.28;100.00;100224.63;10244517;28;20067;-77
2023/10/03 04:31:54;;;;;;;22.83;12.82;;;;;;;16.41;100.00;100230.78;10244654;28;20124;-75
2023/10/03 04:36:55;;;;;;;16.38;13.60;;;;;;;16.15;100.00;100158.44;10245129;28;20048;-76
2023/10/03 04:41:58;;;;;;;20.60;12.88;;;;;;;16.63;100.00;100223.31;10245839;28;20066;-78
2023/10/03 04:46:58;;;;;;;15.10;11.75;;;;;;;16.69;100.00;100210.91;10245047;28;20130;-77
2023/10/03 04:51:59;;;;;;;15.02;11.88;;;;;;;16.92;100.00;100239.16;10245273;28;20481;-78
2023/10/03 04:57:00;;;;;;;18.13;13.00;;;;;;;16.88;100.00;100244.94;10244650;28;20053;-78
2023/10/03 05:02:01;;;;;;;17.35;12.48;;;;;;;16.96;100.00;100270.72;10243499;29;20047;-77
2023/10/03 05:07:02;;;;;;;16.58;12.10;;;;;;;16.78;100.00;100239.19;10249086;28;20039;-77
2023/10/03 05:12:04;;;;;;;19.13;12.10;;;;;;;16.93;100.00;100249.69;10251789;28;20130;-77
2023/10/03 05:17:05;;;;;;;23.48;13.48;;;;;;;17.03;100.00;100262.63;10251513;28;20051;-78
2023/10/03 05:22:08;;;;;;;16.50;12.70;;;;;;;16.89;100.00;100224.28;10252116;29;20487;-78
2023/10/03 05:27:09;;;;;;;15.87;11.87;;;;;;;17.23;100.00;100268.75;10251368;28;20059;-77
2023/10/03 05:32:10;;;;;;;21.52;13.13;;;;;;;17.20;100.00;100273.69;10251057;28;20486;-77
2023/10/03 05:37:10;;;;;;;20.67;12.77;;;;;;;17.06;100.00;100254.97;10250189;28;20050;-78
2023/10/03 05:42:11;;;;;;;19.98;13.73;;;;;;;17.17;100.00;100266.06;10251317;28;20043;-78
2023/10/03 05:47:12;;;;;;;21.80;14.25;;;;;;;17.56;100.00;100318.78;10250795;28;20126;-76
2023/10/03 05:52:13;;;;;;;18.73;13.63;;;;;;;17.67;100.00;100317.28;10250000;28;20071;-77
2023/10/03 05:57:14;;;;;;;20.48;13.25;;;;;;;17.46;100.00;100295.06;10248518;29;20082;-76
2023/10/03 06:02:15;;;;;;;17.08;13.48;;;;;;;17.56;100.00;100318.78;10249692;28;20089;-77
2023/10/03 06:07:15;;;;;;;17.35;12.70;;;;;;;17.68;100.00;100346.63;10250113;28;20113;-77
2023/10/03 06:12:16;;;;;;;24.02;13.55;;;;;;;17.40;100.00;100297.78;10249237;29;20531;-77
2023/10/03 06:17:18;;;;;;;14.52;12.55;;;;;;;17.70;100.00;100357.13;10249150;28;20062;-77
2023/10/03 06:22:19;;;;;;;16.70;12.00;;;;;;;17.46;100.00;100310.34;10249451;28;20039;-77
2023/10/03 06:27:19;;;;;;;14.07;10.77;;;;;;;17.52;100.00;100317.56;10249133;28;20059;-77
2023/10/03 06:32:20;;;;;;;14.45;10.50;;;;;;;17.46;100.00;100310.34;10248674;28;20053;-77
2023/10/03 06:37:23;;;;;;;17.30;9.50;;;;;;;17.85;100.00;100367.63;10248918;28;20483;-77
2023/10/03 06:42:25;;;;;;;14.33;8.93;;;;;;;17.78;100.00;100356.94;10248423;28;20035;-77
2023/10/03 06:47:26;;;;;;;16.92;8.60;;;;;;;17.49;100.00;100320.66;10248843;28;20043;-77
2023/10/03 06:52:28;;;;;;;10.75;7.97;;;;;;;17.58;100.00;100341.69;10249365;28;20483;-77
2023/10/03 06:57:29;;;;;;;12.80;7.60;;;;;;;17.82;100.00;100381.50;10247833;28;20120;-77
2023/10/03 07:02:30;;;;;;;10.60;7.75;;;;;;;17.94;100.00;100395.91;10247722;28;20039;-77
2023/10/03 07:07:31;;;;;;;14.95;6.95;;;;;;;17.77;100.00;100366.88;10248659;28;20047;-77
2023/10/03 07:12:31;;;;;;;9.82;6.45;;;;;;;18.04;100.00;100407.03;10247557;28;20052;-77
2023/10/03 07:17:32;;;;;;;12.18;6.53;;;;;;;18.10;100.00;100405.31;10247649;29;20050;-77
2023/10/03 07:22:33;;;;;;;13.35;6.05;;;;;;;18.17;100.00;100400.75;10247609;28;20044;-77
2023/10/03 07:27:34;;;;;;;11.15;6.07;;;;;;;18.21;100.00;100386.63;10246939;28;20055;-77
2023/10/03 07:32:35;;;;;;;11.98;6.20;;;;;;;18.15;100.00;100360.63;10247546;29;20039;-77
2023/10/03 07:37:36;;;;;;;13.38;6.38;;;;;;;18.37;100.00;100389.88;10246445;28;20150;-77
2023/10/03 07:42:40;;;;;;;9.82;6.18;;;;;;;18.41;100.00;100399.13;10247196;28;20074;-76
2023/10/03 07:47:41;;;;;;;11.68;6.55;;;;;;;18.36;100.00;100383.63;10246430;28;20415;-77
2023/10/03 07:52:44;;;;;;;9.80;6.43;;;;;;;18.51;100.00;100406.72;10246226;28;20474;-77
2023/10/03 07:57:46;;;;;;;10.60;6.18;;;;;;;18.42;100.00;100422.28;10246987;28;20051;-77
2023/10/03 08:02:49;;;;;;;12.00;6.30;;;;;;;18.40;100.00;100421.72;10245842;28;20039;-77
2023/10/03 08:07:50;;;;;;;10.82;6.22;;;;;;;18.15;100.00;100389.38;10245844;28;20047;-77
2023/10/03 08:12:52;;;;;;;7.70;5.68;;;;;;;18.32;100.00;100427.34;10245669;28;20045;-77
2023/10/03 08:17:53;;;;;;;9.00;4.80;;;;;;;18.29;100.00;100450.09;10246598;28;20502;-77
2023/10/03 08:22:55;;;;;;;9.90;5.97;;;;;;;18.11;100.00;100452.69;10245380;28;20046;-77
2023/10/03 08:27:56;;;;;;;10.57;5.95;;;;;;;17.90;100.00;100440.38;10246063;28;20064;-77
2023/10/03 08:33:00;;;;;;;8.88;5.80;;;;;;;17.94;100.00;100457.72;10245228;28;20408;-77
2023/10/03 08:38:13;;;;;;;9.95;5.63;;;;;;;17.92;100.00;100459.78;10245946;28;20483;-77
2023/10/03 08:43:14;;;;;;;16.57;5.53;;;;;;;17.83;100.00;100451.16;10252746;28;20408;-78
2023/10/03 08:48:15;;;;;;;14.80;6.10;;;;;;;17.68;100.00;100455.91;10252060;28;20046;-77
2023/10/03 08:53:26;;;;;;;14.43;5.22;;;;;;;17.34;100.00;100405.00;10252336;28;20043;-78
2023/10/03 08:58:27;;;;;;;15.50;5.70;;;;;;;17.71;100.00;100469.78;10251561;28;20079;-77
2023/10/03 09:03:46;;;;;;;15.90;5.80;;;;;;;17.86;100.00;100474.94;10251450;28;20453;-78
2023/10/03 09:08:52;;;;;;;16.77;6.05;;;;;;;17.96;100.00;100472.59;10251088;28;20045;-78
2023/10/03 09:13:52;;;;;;;13.35;5.47;;;;;;;17.68;100.00;100404.88;10252285;28;20065;-77
2023/10/03 09:18:56;;;;;;;14.18;5.53;;;;;;;17.91;100.00;100412.47;10251148;28;20544;-78
2023/10/03 09:24:01;;;;;;;7.88;4.88;;;;;;;18.31;100.00;100464.16;10251415;29;20495;-77
2023/10/03 09:29:07;;;;;;;7.95;4.65;;;;;;;18.32;100.00;100459.59;10249980;29;20092;-78
2023/10/03 09:34:13;;;;;;;7.45;4.10;;;;;;;18.34;99.48;100463.72;10251135;28;20050;-77
2023/10/03 09:39:21;;;;;;;9.32;3.33;;;;;;;18.30;97.08;100467.88;10250880;29;20051;-78
2023/10/03 09:44:31;;;;;;;6.82;3.50;;;;;;;18.34;95.61;100477.19;10250758;28;20043;-78
2023/10/03 09:49:38;;;;;;;5.63;3.33;;;;;;;18.09;94.68;100442.13;10249343;28;20096;-79
2023/10/03 09:54:39;;;;;;;5.63;3.35;;;;;;;18.11;93.52;100436.56;10250650;28;20035;-78
2023/10/03 09:59:40;;;;;;;5.70;3.50;;;;;;;18.36;91.95;100483.16;10250189;28;20054;-78
2023/10/03 10:04:47;;;;;;;7.93;3.70;;;;;;;18.30;91.68;100488.56;10250087;28;20395;-78
2023/10/03 10:10:09;;;;;;;5.25;3.28;;;;;;;18.04;88.38;100466.19;10250092;28;20039;-78
2023/10/03 10:20:21;;;;;;;6.68;3.47;;;;;;;18.11;90.89;100477.72;10249124;28;20043;-78
2023/10/03 10:25:37;;;;;;;15.35;3.83;;;;;;;18.19;90.21;100492.78;10249547;28;20055;-78
2023/10/03 10:30:39;;;;;;;8.18;3.55;;;;;;;18.18;90.78;100496.50;10249272;28;20138;-78
2023/10/03 10:35:54;;;;;;;6.40;3.50;;;;;;;17.94;89.27;100463.09;10249291;28;20040;-78
2023/10/03 10:41:26;;;;;;;8.15;3.70;;;;;;;17.94;88.07;100445.09;10248702;28;20088;-78
2023/10/03 10:46:39;;;;;;;18.35;4.50;;;;;;;18.23;91.41;100497.50;10248364;29;20557;-78
2023/10/03 10:51:55;;;;;;;8.52;4.00;;;;;;;17.95;93.01;100449.47;10248184;28;20046;-78
2023/10/03 10:57:03;;;;;;;9.32;3.88;;;;;;;18.26;93.58;100501.63;10247883;28;20101;-78
2023/10/03 11:02:06;;;;;;;13.50;4.88;;;;;;;18.31;93.55;100493.75;10248672;28;20039;-78
2023/10/03 11:07:07;;;;;;;13.35;4.30;;;;;;;18.33;93.68;100472.00;10248110;29;20043;-78
2023/10/03 11:12:07;;;;;;;9.80;3.33;;;;;;;18.58;91.73;100507.06;10248739;28;20159;-78
2023/10/03 11:17:08;;;;;;;20.73;4.28;;;;;;;18.61;90.65;100493.97;10247772;29;20149;-78
2023/10/03 11:22:12;;;;;;;16.08;3.67;;;;;;;18.59;89.00;100501.44;10247755;28;20039;-79
2023/10/03 11:27:28;;;;;;;16.48;4.28;;;;;;;18.61;87.55;100515.50;10246639;29;20070;-78
2023/10/03 11:32:30;;;;;;;5.82;3.65;;;;;;;18.30;88.31;100502.84;10247248;28;20506;-78
2023/10/03 11:37:44;;;;;;;10.93;3.50;;;;;;;18.28;87.31;100499.56;10247208;28;20384;-78
2023/10/03 11:42:52;;;;;;;18.38;4.50;;;;;;;17.94;88.90;100450.47;10247743;28;20050;-78
2023/10/03 11:48:07;;;;;;;19.92;4.57;;;;;;;18.17;91.12;100476.03;10247468;28;20061;-79
2023/10/03 11:53:08;;;;;;;16.50;4.65;;;;;;;18.44;90.53;100514.34;10246277;28;20043;-78
2023/10/03 11:58:10;;;;;;;5.88;3.40;;;;;;;18.11;88.55;100464.25;10246723;28;20081;-78
2023/10/03 12:03:12;;;;;;;11.75;4.53;;;;;;;18.45;89.23;100502.56;10246388;28;20452;-79
2023/10/03 12:08:13;;;;;;;8.90;3.35;;;;;;;18.44;87.70;100468.63;10246776;28;20126;-78
2023/10/03 12:13:15;;;;;;;10.57;3.65;;;;;;;18.88;85.70;100489.25;10245705;28;20046;-79
2023/10/03 12:18:16;;;;;;;13.77;6.82;;;;;;;19.30;85.19;100521.84;10244599;29;20106;-79
2023/10/03 12:23:18;;;;;;;13.27;3.95;;;;;;;19.05;83.61;100456.41;10245615;28;20117;-79
2023/10/03 12:28:21;;;;;;;9.43;4.45;;;;;;;19.59;80.33;100514.94;10245640;28;20415;-79
2023/10/03 12:33:22;;;;;;;11.07;4.45;;;;;;;19.72;79.08;100511.31;10245298;28;20400;-79
2023/10/03 12:38:23;;;;;;;14.15;4.70;;;;;;;19.54;78.33;100455.50;10245547;28;20047;-79
2023/10/03 12:43:25;;;;;;;8.23;4.50;;;;;;;19.61;77.50;100477.78;10245026;28;20118;-79
2023/10/03 12:48:26;;;;;;;11.68;4.85;;;;;;;19.70;78.45;100520.66;10244162;28;20039;-80
2023/10/03 12:53:35;;;;;;;7.15;4.30;;;;;;;19.77;79.67;100534.88;10245273;28;20050;-79
2023/10/03 12:58:37;;;;;;;10.63;5.30;;;;;;;19.73;80.63;100537.19;10242044;28;20054;-80
2023/10/03 13:03:39;;;;;;;16.95;5.18;;;;;;;19.37;81.07;100508.31;10242229;29;20047;-81
2023/10/03 13:08:45;;;;;;;18.02;5.88;;;;;;;19.14;81.97;100498.16;10239881;28;20997;-78
2023/10/03 13:13:47;;;;;;;12.43;5.38;;;;;;;19.34;82.91;100549.16;10244054;28;20133;-78
2023/10/03 13:18:49;;;;;;;8.52;4.60;;;;;;;19.19;83.37;100525.25;10244959;28;20044;-77
2023/10/03 13:23:50;;;;;;;11.35;4.90;;;;;;;19.28;83.35;100558.13;10245083;28;20040;-78
2023/10/03 13:28:52;;;;;;;21.85;5.25;;;;;;;19.25;84.08;100569.34;10250504;28;20094;-77
2023/10/03 13:33:52;;;;;;;13.68;5.35;;;;;;;18.82;84.19;100516.22;10249844;29;20048;-77
2023/10/03 13:38:54;;;;;;;17.13;5.40;;;;;;;18.75;84.70;100524.34;10250532;28;20043;-77
2023/10/03 13:44:07;;;;;;;15.00;5.10;;;;;;;18.71;84.67;100536.56;10250473;28;20454;-77
2023/10/03 13:49:08;;;;;;;10.15;5.30;;;;;;;18.90;86.19;100580.56;10250790;28;20039;-77
2023/10/03 13:54:09;;;;;;;15.60;4.68;;;;;;;18.01;86.35;100461.22;10250299;29;20157;-77
2023/10/03 13:59:10;;;;;;;16.27;5.30;;;;;;;18.56;86.77;100544.09;10249550;28;20495;-77
2023/10/03 14:04:12;;;;;;;34.72;6.50;;;;;;;18.39;87.30;100539.19;10249879;28;20046;-80
2023/10/03 14:09:16;;;;;;;7.22;5.47;;;;;;;18.51;89.28;100582.38;10250207;28;20039;-77
2023/10/03 14:14:17;;;;;;;;;;;;;;;18.56;90.73;100582.59;10249567;28;20054;-77
2023/10/03 14:19:19;;;;;;;12.45;5.60;;;;;;;17.63;91.45;100496.06;10249868;28;20362;-77
2023/10/03 14:24:20;;;;;;;87.53;10.15;;;;;;;17.55;93.42;100518.56;10249799;28;20063;-74
2023/10/03 14:29:21;;;;;;;72.10;8.85;;;;;;;17.74;95.11;100595.66;10248937;28;20046;-74
2023/10/03 14:34:22;;;;;;;63.10;10.27;;;;;;;17.33;96.75;100577.06;10249069;28;20043;-74
2023/10/03 14:39:25;;;;;;;167.07;15.00;;;;;;;17.30;97.90;100601.66;10247995;28;20530;-74
2023/10/03 14:44:26;;;;;;;32.10;7.68;;;;;;;17.13;98.99;100628.06;10248444;28;20035;-74
2023/10/03 14:49:29;;;;;;;47.67;9.30;;;;;;;16.81;99.78;100603.66;10248243;28;20050;-76
2023/10/03 14:54:29;;;;;;;31.77;8.30;;;;;;;16.67;100.00;100623.38;10249117;28;20082;-74
2023/10/03 14:59:30;;;;;;;27.83;8.05;;;;;;;16.17;100.00;100564.59;10248335;29;20572;-74
2023/10/03 15:04:31;;;;;;;27.33;8.65;;;;;;;16.40;100.00;100638.53;10247821;29;20058;-74
2023/10/03 15:09:32;;;;;;;22.73;8.30;;;;;;;15.76;100.00;100553.84;10248364;29;20039;-74
2023/10/03 15:14:33;;;;;;;29.30;9.57;;;;;;;16.22;100.00;100639.06;10247976;29;20039;-74
2023/10/03 15:19:34;;;;;;;24.67;8.45;;;;;;;15.87;100.00;100614.91;10247214;28;20054;-74
2023/10/03 15:24:35;;;;;;;41.92;10.45;;;;;;;15.47;100.00;100579.78;10247679;29;20116;-74
2023/10/03 15:29:36;;;;;;;20.70;8.10;;;;;;;15.86;100.00;100658.81;10247600;29;20063;-74
2023/10/03 15:34:38;;;;;;;23.58;9.02;;;;;;;15.25;100.00;100570.13;10247495;28;20051;-74
2023/10/03 15:39:39;;;;;;;20.52;8.75;;;;;;;15.64;100.00;100666.00;10246516;28;20517;-75
2023/10/03 15:44:40;;;;;;;29.90;8.75;;;;;;;15.56;100.00;100670.69;10245413;29;20559;-74
2023/10/03 15:49:41;;;;;;;19.58;8.40;;;;;;;15.14;100.00;100600.09;10244966;28;20126;-74
2023/10/03 15:54:43;;;;;;;12.13;7.35;;;;;;;15.44;100.00;100655.16;10247330;29;20062;-76
2023/10/03 15:59:44;;;;;;;27.60;8.32;;;;;;;15.45;100.00;100680.06;10244133;29;20054;-73
2023/10/03 16:04:45;;;;;;;19.50;7.78;;;;;;;15.49;100.00;100684.81;10244898;29;20047;-75
2023/10/03 16:09:49;;;;;;;29.15;9.25;;;;;;;15.53;100.00;100694.16;10245411;28;20046;-75
2023/10/03 16:14:52;;;;;;;17.05;8.38;;;;;;;15.27;100.00;100643.03;10244246;28;20465;-75
2023/10/03 16:19:54;;;;;;;23.40;8.55;;;;;;;15.56;100.00;100692.94;10246068;28;20050;-75
2023/10/03 16:24:55;;;;;;;21.67;7.55;;;;;;;15.13;100.00;100625.19;10245516;28;20086;-75
2023/10/03 16:30:05;;;;;;;13.75;7.38;;;;;;;15.28;100.00;100666.91;10243835;29;20134;-76
2023/10/03 16:35:07;;;;;;;16.38;8.10;;;;;;;15.13;100.00;100659.97;10244658;29;20040;-76
2023/10/03 16:40:12;;;;;;;14.05;7.78;;;;;;;14.85;100.00;100639.31;10245340;28;20506;-76
2023/10/03 16:45:15;;;;;;;10.57;8.00;;;;;;;14.86;100.00;100651.66;10245136;28;20563;-78
2023/10/03 16:50:19;;;;;;;13.60;8.02;;;;;;;14.92;100.00;100671.47;10246413;28;20043;-77
2023/10/03 16:55:20;;;;;;;16.83;6.82;;;;;;;14.30;100.00;100597.91;10242951;28;20101;-76
2023/10/03 17:00:22;;;;;;;18.42;8.95;;;;;;;15.05;100.00;100736.69;10233666;28;20465;-77
2023/10/03 17:05:26;;;;;;;24.98;19.33;;;;;;;15.03;100.00;100730.69;10234027;28;20157;-76
2023/10/03 17:10:33;;;;;;;;;;;;;;;15.25;100.00;100736.06;10237950;28;20081;-76
2023/10/03 17:15:34;;;;;;;26.83;16.65;;;;;;;14.93;100.00;100727.47;10229334;28;19973;-76
2023/10/03 17:20:35;;;;;;;21.50;13.80;;;;;;;14.85;100.00;100730.25;10230656;28;20042;-76
2023/10/03 17:25:40;;;;;;;18.42;10.63;;;;;;;14.81;100.00;100723.63;10231483;28;20066;-76
2023/10/03 17:30:41;;;;;;;16.20;11.02;;;;;;;15.03;100.00;100761.97;10229678;29;20039;-75
2023/10/03 17:35:42;;;;;;;22.75;10.27;;;;;;;14.16;100.00;100605.75;10233719;29;20064;-76
2023/10/03 17:40:44;;;;;;;19.80;9.93;;;;;;;15.13;100.00;100759.81;10234461;29;20457;-75
2023/10/03 17:45:47;;;;;;;26.80;9.77;;;;;;;14.92;100.00;100752.56;10234209;28;20089;-76
2023/10/03 17:50:51;;;;;;;15.02;8.80;;;;;;;14.92;100.00;100752.56;10228135;29;20050;-75
2023/10/03 17:55:55;;;;;;;13.85;8.45;;;;;;;14.76;100.00;100744.75;10229441;29;20039;-78
2023/10/03 18:00:58;;;;;;;17.02;8.38;;;;;;;14.74;100.00;100754.78;10234027;28;20047;-77
2023/10/03 18:06:02;;;;;;;16.43;9.10;;;;;;;14.71;100.00;100757.81;10221421;28;20055;-73
2023/10/03 18:11:05;;;;;;;27.77;7.72;;;;;;;14.78;100.00;100767.63;10230187;28;20047;-76
2023/10/03 18:16:12;;;;;;;14.33;7.67;;;;;;;14.79;100.00;100779.97;10228819;28;20058;-76
2023/10/03 18:21:16;;;;;;;22.80;8.60;;;;;;;14.63;100.00;100764.13;10244784;28;20050;-76
2023/10/03 18:26:19;;;;;;;24.63;7.20;;;;;;;14.82;100.00;100792.97;10234598;28;20056;-77
2023/10/03 18:31:25;;;;;;;17.73;7.88;;;;;;;14.74;100.00;100790.38;10232591;28;20055;-77
2023/10/03 18:36:28;;;;;;;14.25;7.75;;;;;;;14.23;100.00;100719.88;10225566;29;20051;-77
2023/10/03 18:41:29;;;;;;;28.75;9.77;;;;;;;14.64;100.00;100780.97;10227409;28;20516;-78
2023/10/03 18:46:31;;;;;;;22.73;11.13;;;;;;;14.53;100.00;100760.88;10228390;29;20121;-76
2023/10/03 18:51:32;;;;;;;30.98;10.98;;;;;;;14.75;100.00;100804.59;10234942;28;20043;-79
2023/10/03 18:56:33;;;;;;;16.50;9.35;;;;;;;14.76;100.00;100816.94;10248086;28;20043;-76
2023/10/03 19:01:34;;;;;;;21.80;9.93;;;;;;;14.38;100.00;100756.31;10248812;28;20043;-76
2023/10/03 19:06:35;;;;;;;18.40;10.02;;;;;;;14.68;100.00;100811.69;10247708;28;20134;-76
2023/10/03 19:11:38;;;;;;;18.83;10.15;;;;;;;14.55;100.00;100789.09;10246609;28;20559;-77
2023/10/03 19:16:39;;;;;;;21.80;10.45;;;;;;;14.72;100.00;100811.13;10248856;28;20499;-76
2023/10/03 19:21:40;;;;;;;20.05;9.63;;;;;;;14.77;100.00;100823.94;10247964;28;20047;-76
2023/10/03 19:26:41;;;;;;;20.38;10.35;;;;;;;14.33;100.00;100761.38;10246559;28;20133;-76
2023/10/03 19:31:42;;;;;;;22.10;10.75;;;;;;;14.73;100.00;100822.66;10246563;29;20065;-76
2023/10/03 19:36:43;;;;;;;29.00;11.07;;;;;;;14.63;100.00;100814.06;10247880;28;20085;-76
2023/10/03 19:41:44;;;;;;;12.45;9.55;;;;;;;14.25;100.00;100750.78;10246971;28;20050;-76
2023/10/03 19:46:51;;;;;;;17.98;9.15;;;;;;;14.64;100.00;100795.19;10246455;29;20049;-76
2023/10/03 19:51:53;;;;;;;18.48;9.55;;;;;;;14.59;100.00;100805.59;10246472;29;20084;-76
2023/10/03 19:56:54;;;;;;;15.00;10.00;;;;;;;14.54;100.00;100794.63;10245801;28;20069;-76
2023/10/03 20:01:56;;;;;;;12.73;9.07;;;;;;;14.14;100.00;100760.03;10247045;28;20055;-76
2023/10/03 20:06:56;;;;;;;22.23;9.05;;;;;;;14.09;100.00;100761.59;10247024;29;20043;-76
2023/10/03 20:11:57;;;;;;;18.35;9.65;;;;;;;14.32;100.00;100806.97;10245937;28;20502;-76
2023/10/03 20:16:59;;;;;;;17.67;10.27;;;;;;;13.95;100.00;100760.56;10246208;28;20073;-76
2023/10/03 20:22:00;;;;;;;24.23;10.55;;;;;;;14.01;100.00;100781.22;10247147;28;20047;-76
2023/10/03 20:27:01;;;;;;;20.02;10.25;;;;;;;13.46;100.00;100720.88;10245521;28;20576;-76
2023/10/03 20:32:01;;;;;;;21.77;11.05;;;;;;;13.15;100.00;100695.03;10245407;28;20039;-76
2023/10/03 20:37:02;;;;;;;31.17;11.48;;;;;;;13.71;100.00;100790.94;10250230;28;20039;-77
2023/10/03 20:42:03;;;;;;;28.70;10.95;;;;;;;13.81;100.00;100806.72;10251339;28;20043;-77
2023/10/03 20:47:04;;;;;;;23.63;11.63;;;;;;;13.53;100.00;100755.72;10253068;28;20068;-76
2023/10/03 20:52:07;;;;;;;33.22;14.25;;;;;;;13.69;100.00;100788.44;10251633;28;20495;-77
2023/10/03 20:57:08;;;;;;;27.13;14.17;;;;;;;13.57;100.00;100773.03;10252476;28;20193;-76
2023/10/03 21:02:09;;;;;;;41.00;18.25;;;;;;;13.85;100.00;100824.06;10251569;29;20043;-76
2023/10/03 21:07:12;;;;;;;44.80;21.55;;;;;;;13.85;100.00;100818.72;10250687;29;20384;-76
2023/10/03 21:12:13;;;;;;;34.25;15.60;;;;;;;13.94;100.00;100825.69;10251782;28;20047;-76
2023/10/03 21:17:13;;;;;;;34.67;14.63;;;;;;;13.79;100.00;100800.72;10251300;28;20043;-76
2023/10/03 21:22:14;;;;;;;45.20;16.00;;;;;;;13.80;100.00;100826.44;10251074;28;20043;-76
2023/10/03 21:27:15;;;;;;;35.25;16.38;;;;;;;13.48;100.00;100805.09;10251923;28;20090;-76
2023/10/03 21:32:16;;;;;;;31.48;13.05;;;;;;;13.35;100.00;100802.19;10251795;29;20465;-76
2023/10/03 21:37:17;;;;;;;27.38;12.23;;;;;;;13.33;100.00;100824.69;10251549;28;20104;-77
2023/10/03 21:42:17;;;;;;;18.90;10.48;;;;;;;13.38;100.00;100841.03;10250981;28;20122;-76
2023/10/03 21:47:18;;;;;;;16.60;9.35;;;;;;;13.27;100.00;100836.91;10249946;28;20491;-78
2023/10/03 21:52:19;;;;;;;21.70;9.13;;;;;;;13.22;100.00;100833.88;10250776;28;20050;-76
2023/10/03 21:57:20;;;;;;;12.13;8.77;;;;;;;13.18;100.00;100817.38;10250838;28;20051;-76
2023/10/03 22:02:22;;;;;;;12.38;9.02;;;;;;;12.90;100.00;100798.34;10250343;28;20046;-76
2023/10/03 22:07:22;;;;;;;13.68;10.30;;;;;;;12.86;100.00;100796.19;10250218;28;20077;-76
2023/10/03 22:12:23;;;;;;;16.00;9.15;;;;;;;13.03;100.00;100854.63;10250609;28;20104;-76
2023/10/03 22:17:24;;;;;;;18.73;10.45;;;;;;;12.63;100.00;100817.41;10249264;28;20047;-78
2023/10/03 22:22:25;;;;;;;18.55;9.90;;;;;;;12.62;100.00;100827.22;10249303;28;20043;-76
2023/10/03 22:27:26;;;;;;;36.92;11.43;;;;;;;12.37;100.00;100801.63;10249655;28;20055;-76
2023/10/03 22:32:26;;;;;;;20.02;10.75;;;;;;;12.29;100.00;100782.00;10248011;29;20062;-76
2023/10/03 22:37:27;;;;;;;27.20;11.20;;;;;;;12.39;100.00;100802.31;10249226;28;20055;-76
2023/10/03 22:42:28;;;;;;;16.45;10.75;;;;;;;12.49;100.00;100834.91;10248555;28;20058;-76
2023/10/03 22:47:29;;;;;;;20.42;11.50;;;;;;;12.14;100.00;100781.00;10249340;29;20407;-76